sensor_id;sensor_type;location;lat;lon;timestamp;pressure;altitude;pressure_sealevel;temperature;humidity
57606;BME280;43430;48.204;11.556;2022-10-16T00:00:41;96139.69;;;12.17;100.00
57606;BME280;43430;48.204;11.556;2022-10-16T00:03:07;96142.00;;;12.13;100.00
57606;BME280;43430;48.204;11.556;2022-10-16T00:05:38;96144.19;;;12.16;100.00
57606;BME280;43430;48.204;11.556;2022-10-16T00:08:04;96136.47;;;12.15;100.00
57606;BME280;43430;48.204;11.556;2022-10-16T00:10:30;96142.00;;;12.13;100.00
57606;BME280;43430;48.204;11.556;2022-10-16T00:12:55;96148.88;;;12.14;100.00
57606;BME280;43430;48.204;11.556;2022-10-16T00:15:20;96149.22;;;12.18;100.00
57606;BME280;43430;48.204;11.556;2022-10-16T00:17:46;96147.53;;;12.23;100.00
57606;BME280;43430;48.204;11.556;2022-10-16T00:20:11;96135.13;;;12.24;100.00
57606;BME280;43430;48.204;11.556;2022-10-16T00:22:36;96142.34;;;12.28;100.00
57606;BME280;43430;48.204;11.556;2022-10-16T00:25:02;96132.97;;;12.32;100.00
57606;BME280;43430;48.204;11.556;2022-10-16T00:27:27;96121.00;;;12.30;100.00
57606;BME280;43430;48.204;11.556;2022-10-16T00:29:53;96131.44;;;12.25;100.00
57606;BME280;43430;48.204;11.556;2022-10-16T00:32:19;96132.00;;;12.15;100.00
57606;BME280;43430;48.204;11.556;2022-10-16T00:34:45;96124.88;;;12.16;100.00
57606;BME280;43430;48.204;11.556;2022-10-16T00:37:11;96120.50;;;12.21;100.00
57606;BME280;43430;48.204;11.556;2022-10-16T00:39:37;96120.50;;;12.21;100.00
57606;BME280;43430;48.204;11.556;2022-10-16T00:42:02;96126.97;;;12.25;100.00
57606;BME280;43430;48.204;11.556;2022-10-16T00:44:52;96132.00;;;12.27;100.00
57606;BME280;43430;48.204;11.556;2022-10-16T00:47:40;96129.81;;;12.24;100.00
57606;BME280;43430;48.204;11.556;2022-10-16T00:50:10;96122.47;;;12.26;100.00
57606;BME280;43430;48.204;11.556;2022-10-16T00:52:36;96132.91;;;12.21;100.00
57606;BME280;43430;48.204;11.556;2022-10-16T00:55:05;96137.41;;;12.08;100.00
57606;BME280;43430;48.204;11.556;2022-10-16T00:57:31;96148.19;;;12.07;100.00
57606;BME280;43430;48.204;11.556;2022-10-16T00:59:57;96149.94;;;12.13;100.00
57606;BME280;43430;48.204;11.556;2022-10-16T01:02:23;96146.13;;;12.21;100.00
57606;BME280;43430;48.204;11.556;2022-10-16T01:04:51;96138.34;;;12.26;100.00
57606;BME280;43430;48.204;11.556;2022-10-16T01:10:21;96140.66;;;12.22;100.00
57606;BME280;43430;48.204;11.556;2022-10-16T01:13:06;96150.63;;;12.20;100.00
57606;BME280;43430;48.204;11.556;2022-10-16T01:15:48;96153.28;;;12.20;100.00
57606;BME280;43430;48.204;11.556;2022-10-16T01:18:39;96158.53;;;12.08;100.00
57606;BME280;43430;48.204;11.556;2022-10-16T01:31:18;96155.75;;;12.03;100.00
57606;BME280;43430;48.204;11.556;2022-10-16T01:33:53;96159.44;;;12.02;100.00
57606;BME280;43430;48.204;11.556;2022-10-16T01:36:24;96153.25;;;12.08;100.00
57606;BME280;43430;48.204;11.556;2022-10-16T01:38:54;96151.53;;;12.14;100.00
57606;BME280;43430;48.204;11.556;2022-10-16T01:41:26;96139.69;;;12.17;100.00
57606;BME280;43430;48.204;11.556;2022-10-16T01:44:19;96142.84;;;12.25;100.00
57606;BME280;43430;48.204;11.556;2022-10-16T01:46:48;96137.06;;;12.28;100.00
57606;BME280;43430;48.204;11.556;2022-10-16T01:49:15;96122.84;;;12.29;100.00
57606;BME280;43430;48.204;11.556;2022-10-16T01:51:44;96132.00;;;12.27;100.00
57606;BME280;43430;48.204;11.556;2022-10-16T01:54:13;96137.06;;;12.17;100.00
57606;BME280;43430;48.204;11.556;2022-10-16T01:56:40;96132.72;;;12.22;100.00
57606;BME280;43430;48.204;11.556;2022-10-16T01:59:10;96138.00;;;12.22;100.00
57606;BME280;43430;48.204;11.556;2022-10-16T02:01:40;96136.00;;;12.18;100.00
57606;BME280;43430;48.204;11.556;2022-10-16T02:04:15;96129.59;;;12.14;100.00
57606;BME280;43430;48.204;11.556;2022-10-16T02:06:42;96121.66;;;12.14;100.00
57606;BME280;43430;48.204;11.556;2022-10-16T02:09:08;96123.50;;;12.13;100.00
57606;BME280;43430;48.204;11.556;2022-10-16T02:11:34;96127.13;;;12.00;100.00
57606;BME280;43430;48.204;11.556;2022-10-16T02:14:02;96129.22;;;11.98;100.00
57606;BME280;43430;48.204;11.556;2022-10-16T02:16:38;96126.69;;;12.03;100.00
57606;BME280;43430;48.204;11.556;2022-10-16T02:19:05;96121.53;;;12.08;100.00
57606;BME280;43430;48.204;11.556;2022-10-16T02:27:12;96129.88;;;11.94;100.00
57606;BME280;43430;48.204;11.556;2022-10-16T02:29:43;96131.59;;;11.88;100.00
57606;BME280;43430;48.204;11.556;2022-10-16T02:32:15;96129.59;;;11.83;100.00
57606;BME280;43430;48.204;11.556;2022-10-16T02:34:42;96131.31;;;11.78;100.00
57606;BME280;43430;48.204;11.556;2022-10-16T02:37:10;96136.34;;;11.79;100.00
57606;BME280;43430;48.204;11.556;2022-10-16T02:39:37;96130.38;;;11.72;100.00
57606;BME280;43430;48.204;11.556;2022-10-16T02:42:03;96136.78;;;11.64;100.00
57606;BME280;43430;48.204;11.556;2022-10-16T02:44:29;96145.03;;;11.56;100.00
57606;BME280;43430;48.204;11.556;2022-10-16T02:46:55;96145.22;;;11.55;100.00
57606;BME280;43430;48.204;11.556;2022-10-16T02:49:20;96139.94;;;11.55;100.00
57606;BME280;43430;48.204;11.556;2022-10-16T02:51:45;96141.88;;;11.48;100.00
57606;BME280;43430;48.204;11.556;2022-10-16T02:54:11;96147.59;;;11.45;100.00
57606;BME280;43430;48.204;11.556;2022-10-16T02:56:36;96156.19;;;11.40;100.00
57606;BME280;43430;48.204;11.556;2022-10-16T02:59:02;96161.69;;;11.38;100.00
57606;BME280;43430;48.204;11.556;2022-10-16T03:01:27;96161.69;;;11.38;100.00
57606;BME280;43430;48.204;11.556;2022-10-16T03:03:52;96151.78;;;11.34;100.00
57606;BME280;43430;48.204;11.556;2022-10-16T03:06:18;96142.03;;;11.34;100.00
57606;BME280;43430;48.204;11.556;2022-10-16T03:08:43;96141.22;;;11.34;100.00
57606;BME280;43430;48.204;11.556;2022-10-16T03:11:09;96144.09;;;11.32;100.00
57606;BME280;43430;48.204;11.556;2022-10-16T03:13:34;96145.72;;;11.33;100.00
57606;BME280;43430;48.204;11.556;2022-10-16T03:15:59;96138.81;;;11.32;100.00
57606;BME280;43430;48.204;11.556;2022-10-16T03:18:25;96145.34;;;11.30;100.00
57606;BME280;43430;48.204;11.556;2022-10-16T03:20:50;96142.41;;;11.38;100.00
57606;BME280;43430;48.204;11.556;2022-10-16T03:23:15;96148.47;;;11.38;100.00
57606;BME280;43430;48.204;11.556;2022-10-16T03:25:41;96152.31;;;11.43;100.00
57606;BME280;43430;48.204;11.556;2022-10-16T03:28:06;96152.50;;;11.41;100.00
57606;BME280;43430;48.204;11.556;2022-10-16T03:30:31;96154.66;;;11.32;100.00
57606;BME280;43430;48.204;11.556;2022-10-16T03:32:57;96146.88;;;11.37;100.00
57606;BME280;43430;48.204;11.556;2022-10-16T03:35:23;96141.94;;;11.41;100.00
57606;BME280;43430;48.204;11.556;2022-10-16T03:37:49;96148.63;;;11.44;100.00
57606;BME280;43430;48.204;11.556;2022-10-16T03:40:15;96150.03;;;11.46;100.00
57606;BME280;43430;48.204;11.556;2022-10-16T03:42:42;96155.75;;;11.43;100.00
57606;BME280;43430;48.204;11.556;2022-10-16T03:45:08;96165.28;;;11.44;100.00
57606;BME280;43430;48.204;11.556;2022-10-16T03:47:33;96169.88;;;11.49;100.00
57606;BME280;43430;48.204;11.556;2022-10-16T03:49:59;96174.28;;;11.55;100.00
57606;BME280;43430;48.204;11.556;2022-10-16T03:52:25;96172.22;;;11.57;100.00
57606;BME280;43430;48.204;11.556;2022-10-16T03:54:50;96170.97;;;11.59;100.00
57606;BME280;43430;48.204;11.556;2022-10-16T03:57:15;96169.34;;;11.58;100.00
57606;BME280;43430;48.204;11.556;2022-10-16T03:59:41;96172.00;;;11.58;100.00
57606;BME280;43430;48.204;11.556;2022-10-16T04:02:06;96168.13;;;11.61;100.00
57606;BME280;43430;48.204;11.556;2022-10-16T04:04:31;96167.50;;;11.59;100.00
57606;BME280;43430;48.204;11.556;2022-10-16T04:06:57;96174.28;;;11.55;100.00
57606;BME280;43430;48.204;11.556;2022-10-16T04:09:22;96178.22;;;11.64;100.00
57606;BME280;43430;48.204;11.556;2022-10-16T04:11:47;96177.78;;;11.67;100.00
57606;BME280;43430;48.204;11.556;2022-10-16T04:14:13;96169.97;;;11.72;100.00
57606;BME280;43430;48.204;11.556;2022-10-16T04:16:38;96165.28;;;11.74;100.00
57606;BME280;43430;48.204;11.556;2022-10-16T04:19:04;96155.75;;;11.73;100.00
57606;BME280;43430;48.204;11.556;2022-10-16T04:21:29;96160.66;;;11.70;100.00
57606;BME280;43430;48.204;11.556;2022-10-16T04:23:54;96162.50;;;11.69;100.00
57606;BME280;43430;48.204;11.556;2022-10-16T04:26:20;96157.00;;;11.71;100.00
57606;BME280;43430;48.204;11.556;2022-10-16T04:28:45;96167.13;;;11.74;100.00
57606;BME280;43430;48.204;11.556;2022-10-16T04:31:11;96157.81;;;11.71;100.00
57606;BME280;43430;48.204;11.556;2022-10-16T04:33:36;96167.34;;;11.72;100.00
57606;BME280;43430;48.204;11.556;2022-10-16T04:36:02;96162.22;;;11.77;100.00
57606;BME280;43430;48.204;11.556;2022-10-16T04:38:28;96166.09;;;11.75;100.00
57606;BME280;43430;48.204;11.556;2022-10-16T04:40:54;96170.59;;;11.74;100.00
57606;BME280;43430;48.204;11.556;2022-10-16T04:43:20;96180.91;;;11.76;100.00
57606;BME280;43430;48.204;11.556;2022-10-16T04:45:45;96171.50;;;11.80;100.00
57606;BME280;43430;48.204;11.556;2022-10-16T04:48:11;96179.38;;;11.86;100.00
57606;BME280;43430;48.204;11.556;2022-10-16T04:50:36;96163.88;;;11.90;100.00
57606;BME280;43430;48.204;11.556;2022-10-16T04:53:02;96183.66;;;11.87;100.00
57606;BME280;43430;48.204;11.556;2022-10-16T04:55:27;96172.16;;;11.94;100.00
57606;BME280;43430;48.204;11.556;2022-10-16T04:57:52;96160.69;;;12.00;100.00
57606;BME280;43430;48.204;11.556;2022-10-16T05:00:18;96163.78;;;11.97;100.00
57606;BME280;43430;48.204;11.556;2022-10-16T05:02:43;96160.13;;;11.98;100.00
57606;BME280;43430;48.204;11.556;2022-10-16T05:05:08;96153.81;;;11.99;100.00
57606;BME280;43430;48.204;11.556;2022-10-16T05:07:34;96157.69;;;11.96;100.00
57606;BME280;43430;48.204;11.556;2022-10-16T05:09:59;96171.59;;;11.92;100.00
57606;BME280;43430;48.204;11.556;2022-10-16T05:12:25;96170.56;;;11.93;100.00
57606;BME280;43430;48.204;11.556;2022-10-16T05:14:50;96168.06;;;11.98;100.00
57606;BME280;43430;48.204;11.556;2022-10-16T05:17:15;96170.09;;;11.96;100.00
57606;BME280;43430;48.204;11.556;2022-10-16T05:19:41;96176.53;;;12.00;100.00
57606;BME280;43430;48.204;11.556;2022-10-16T05:22:06;96168.41;;;12.01;100.00
57606;BME280;43430;48.204;11.556;2022-10-16T05:24:31;96161.50;;;12.00;100.00
57606;BME280;43430;48.204;11.556;2022-10-16T05:26:57;96164.38;;;11.99;100.00
57606;BME280;43430;48.204;11.556;2022-10-16T05:29:22;96168.06;;;11.98;100.00
57606;BME280;43430;48.204;11.556;2022-10-16T05:31:50;96189.06;;;11.93;100.00
57606;BME280;43430;48.204;11.556;2022-10-16T05:34:16;96193.44;;;11.99;100.00
57606;BME280;43430;48.204;11.556;2022-10-16T05:36:42;96178.41;;;12.11;100.00
57606;BME280;43430;48.204;11.556;2022-10-16T05:39:07;96183.50;;;12.13;100.00
57606;BME280;43430;48.204;11.556;2022-10-16T05:41:33;96176.59;;;12.11;100.00
57606;BME280;43430;48.204;11.556;2022-10-16T05:43:58;96190.72;;;12.05;100.00
57606;BME280;43430;48.204;11.556;2022-10-16T05:46:24;96184.63;;;12.05;100.00
57606;BME280;43430;48.204;11.556;2022-10-16T05:48:52;96190.03;;;12.10;100.00
57606;BME280;43430;48.204;11.556;2022-10-16T05:51:18;96186.69;;;12.15;100.00
57606;BME280;43430;48.204;11.556;2022-10-16T05:53:43;96190.81;;;12.10;100.00
57606;BME280;43430;48.204;11.556;2022-10-16T05:56:10;96199.00;;;12.09;100.00
57606;BME280;43430;48.204;11.556;2022-10-16T05:58:37;96202.69;;;12.08;100.00
57606;BME280;43430;48.204;11.556;2022-10-16T06:01:16;96212.88;;;12.04;100.00
57606;BME280;43430;48.204;11.556;2022-10-16T06:03:42;96204.81;;;11.99;100.00
57606;BME280;43430;48.204;11.556;2022-10-16T06:06:11;96208.13;;;11.95;100.00
57606;BME280;43430;48.204;11.556;2022-10-16T06:08:37;96212.38;;;11.96;100.00
57606;BME280;43430;48.204;11.556;2022-10-16T06:11:05;96214.00;;;11.97;100.00
57606;BME280;43430;48.204;11.556;2022-10-16T06:13:31;96208.44;;;11.86;100.00
57606;BME280;43430;48.204;11.556;2022-10-16T06:16:00;96218.25;;;11.79;100.00
57606;BME280;43430;48.204;11.556;2022-10-16T06:18:27;96222.09;;;11.65;100.00
57606;BME280;43430;48.204;11.556;2022-10-16T06:20:53;96223.25;;;11.69;100.00
57606;BME280;43430;48.204;11.556;2022-10-16T06:23:19;96221.56;;;11.75;100.00
57606;BME280;43430;48.204;11.556;2022-10-16T06:25:44;96227.53;;;11.70;100.00
57606;BME280;43430;48.204;11.556;2022-10-16T06:28:09;96234.72;;;11.63;100.00
57606;BME280;43430;48.204;11.556;2022-10-16T06:30:35;96236.84;;;11.54;100.00
57606;BME280;43430;48.204;11.556;2022-10-16T06:33:00;96245.50;;;11.61;100.00
57606;BME280;43430;48.204;11.556;2022-10-16T06:35:25;96246.91;;;11.64;100.00
57606;BME280;43430;48.204;11.556;2022-10-16T06:37:52;96248.94;;;11.62;100.00
57606;BME280;43430;48.204;11.556;2022-10-16T06:40:18;96246.66;;;11.65;100.00
57606;BME280;43430;48.204;11.556;2022-10-16T06:42:43;96248.38;;;11.60;100.00
57606;BME280;43430;48.204;11.556;2022-10-16T06:45:09;96252.81;;;11.59;100.00
57606;BME280;43430;48.204;11.556;2022-10-16T06:47:35;96260.84;;;11.53;100.00
57606;BME280;43430;48.204;11.556;2022-10-16T06:50:00;96264.31;;;11.53;100.00
57606;BME280;43430;48.204;11.556;2022-10-16T06:52:28;96264.44;;;11.58;100.00
57606;BME280;43430;48.204;11.556;2022-10-16T06:54:53;96271.91;;;11.61;100.00
57606;BME280;43430;48.204;11.556;2022-10-16T06:57:18;96270.31;;;11.60;100.00
57606;BME280;43430;48.204;11.556;2022-10-16T06:59:44;96270.50;;;11.59;100.00
57606;BME280;43430;48.204;11.556;2022-10-16T07:02:09;96273.31;;;11.64;100.00
57606;BME280;43430;48.204;11.556;2022-10-16T07:04:36;96275.72;;;11.65;100.00
57606;BME280;43430;48.204;11.556;2022-10-16T07:07:01;96294.09;;;11.60;100.00
57606;BME280;43430;48.204;11.556;2022-10-16T07:09:26;96284.69;;;11.64;100.00
57606;BME280;43430;48.204;11.556;2022-10-16T07:11:52;96280.38;;;11.70;100.00
57606;BME280;43430;48.204;11.556;2022-10-16T07:14:19;96292.31;;;11.73;100.00
57606;BME280;43430;48.204;11.556;2022-10-16T07:16:45;96292.22;;;11.79;100.00
57606;BME280;43430;48.204;11.556;2022-10-16T07:19:11;96285.66;;;11.88;100.00
57606;BME280;43430;48.204;11.556;2022-10-16T07:21:38;96279.50;;;11.95;100.00
57606;BME280;43430;48.204;11.556;2022-10-16T07:24:05;96287.97;;;11.97;100.00
57606;BME280;43430;48.204;11.556;2022-10-16T07:26:34;96287.69;;;12.05;100.00
57606;BME280;43430;48.204;11.556;2022-10-16T07:29:00;96289.31;;;12.06;100.00
57606;BME280;43430;48.204;11.556;2022-10-16T07:31:26;96291.41;;;12.16;100.00
57606;BME280;43430;48.204;11.556;2022-10-16T07:33:52;96299.13;;;12.17;100.00
57606;BME280;43430;48.204;11.556;2022-10-16T07:36:19;96299.13;;;12.17;100.00
57606;BME280;43430;48.204;11.556;2022-10-16T07:38:45;96309.44;;;12.37;100.00
57606;BME280;43430;48.204;11.556;2022-10-16T07:41:13;96304.66;;;12.46;100.00
57606;BME280;43430;48.204;11.556;2022-10-16T07:43:39;96291.78;;;12.61;100.00
57606;BME280;43430;48.204;11.556;2022-10-16T07:46:05;96292.28;;;12.70;100.00
57606;BME280;43430;48.204;11.556;2022-10-16T07:48:32;96293.19;;;12.75;100.00
57606;BME280;43430;48.204;11.556;2022-10-16T07:50:59;96294.75;;;12.95;100.00
57606;BME280;43430;48.204;11.556;2022-10-16T07:53:25;96289.22;;;13.08;100.00
57606;BME280;43430;48.204;11.556;2022-10-16T07:55:50;96286.34;;;13.21;100.00
57606;BME280;43430;48.204;11.556;2022-10-16T07:58:15;96278.19;;;13.35;100.00
57606;BME280;43430;48.204;11.556;2022-10-16T08:00:41;96280.84;;;13.46;100.00
57606;BME280;43430;48.204;11.556;2022-10-16T08:03:08;96273.91;;;13.57;100.00
57606;BME280;43430;48.204;11.556;2022-10-16T08:05:33;96264.66;;;13.71;100.00
57606;BME280;43430;48.204;11.556;2022-10-16T08:07:59;96267.16;;;13.90;100.00
57606;BME280;43430;48.204;11.556;2022-10-16T08:10:26;96243.34;;;14.07;100.00
57606;BME280;43430;48.204;11.556;2022-10-16T08:12:52;96240.03;;;14.28;100.00
57606;BME280;43430;48.204;11.556;2022-10-16T08:15:18;96252.19;;;14.41;100.00
57606;BME280;43430;48.204;11.556;2022-10-16T08:17:44;96248.72;;;14.52;100.00
57606;BME280;43430;48.204;11.556;2022-10-16T08:20:10;96246.31;;;14.67;100.00
57606;BME280;43430;48.204;11.556;2022-10-16T08:22:35;96249.69;;;14.80;100.00
57606;BME280;43430;48.204;11.556;2022-10-16T08:25:01;96237.44;;;14.95;100.00
57606;BME280;43430;48.204;11.556;2022-10-16T08:27:31;96252.00;;;15.10;100.00
57606;BME280;43430;48.204;11.556;2022-10-16T08:29:57;96231.78;;;15.26;100.00
57606;BME280;43430;48.204;11.556;2022-10-16T08:32:22;96238.84;;;15.37;100.00
57606;BME280;43430;48.204;11.556;2022-10-16T08:34:47;96238.22;;;15.52;100.00
57606;BME280;43430;48.204;11.556;2022-10-16T08:37:13;96230.94;;;15.64;100.00
57606;BME280;43430;48.204;11.556;2022-10-16T08:39:38;96238.31;;;15.79;100.00
57606;BME280;43430;48.204;11.556;2022-10-16T08:42:19;96231.56;;;15.93;100.00
57606;BME280;43430;48.204;11.556;2022-10-16T08:48:20;96234.25;;;16.20;100.00
57606;BME280;43430;48.204;11.556;2022-10-16T08:50:50;96224.31;;;16.37;100.00
57606;BME280;43430;48.204;11.556;2022-10-16T08:53:25;96235.34;;;16.51;100.00
57606;BME280;43430;48.204;11.556;2022-10-16T08:55:53;96223.19;;;16.60;100.00
57606;BME280;43430;48.204;11.556;2022-10-16T08:58:23;96228.41;;;16.77;100.00
57606;BME280;43430;48.204;11.556;2022-10-16T09:01:03;96224.56;;;16.95;100.00
57606;BME280;43430;48.204;11.556;2022-10-16T09:06:50;96226.34;;;17.27;100.00
57606;BME280;43430;48.204;11.556;2022-10-16T09:12:36;96222.56;;;17.65;100.00
57606;BME280;43430;48.204;11.556;2022-10-16T09:15:14;96222.59;;;17.75;100.00
57606;BME280;43430;48.204;11.556;2022-10-16T09:17:55;96217.59;;;17.84;100.00
57606;BME280;43430;48.204;11.556;2022-10-16T09:23:31;96223.25;;;17.93;100.00
57606;BME280;43430;48.204;11.556;2022-10-16T09:25:59;96220.88;;;18.07;100.00
57606;BME280;43430;48.204;11.556;2022-10-16T09:28:25;96218.22;;;18.22;100.00
57606;BME280;43430;48.204;11.556;2022-10-16T09:30:51;96216.13;;;18.34;100.00
57606;BME280;43430;48.204;11.556;2022-10-16T09:33:19;96219.34;;;18.52;100.00
57606;BME280;43430;48.204;11.556;2022-10-16T09:35:50;96214.00;;;18.52;100.00
57606;BME280;43430;48.204;11.556;2022-10-16T09:38:32;96213.75;;;18.58;100.00
57606;BME280;43430;48.204;11.556;2022-10-16T09:41:00;96212.94;;;18.68;100.00
57606;BME280;43430;48.204;11.556;2022-10-16T09:46:00;96217.25;;;18.84;100.00
57606;BME280;43430;48.204;11.556;2022-10-16T09:48:33;96226.34;;;18.83;100.00
57606;BME280;43430;48.204;11.556;2022-10-16T09:51:01;96231.13;;;18.96;100.00
57606;BME280;43430;48.204;11.556;2022-10-16T09:53:39;96224.69;;;19.13;100.00
57606;BME280;43430;48.204;11.556;2022-10-16T09:56:04;96230.84;;;19.24;100.00
57606;BME280;43430;48.204;11.556;2022-10-16T09:58:32;96235.88;;;19.30;100.00
57606;BME280;43430;48.204;11.556;2022-10-16T10:00:58;96230.28;;;19.32;100.00
57606;BME280;43430;48.204;11.556;2022-10-16T10:03:35;96230.00;;;19.38;100.00
57606;BME280;43430;48.204;11.556;2022-10-16T10:06:22;96229.19;;;19.48;100.00
57606;BME280;43430;48.204;11.556;2022-10-16T10:09:06;96223.53;;;19.55;100.00
57606;BME280;43430;48.204;11.556;2022-10-16T10:17:01;96219.16;;;19.89;100.00
57606;BME280;43430;48.204;11.556;2022-10-16T10:19:27;96227.69;;;19.97;100.00
57606;BME280;43430;48.204;11.556;2022-10-16T10:21:52;96223.38;;;20.01;100.00
57606;BME280;43430;48.204;11.556;2022-10-16T10:24:19;96228.19;;;20.04;100.00
57606;BME280;43430;48.204;11.556;2022-10-16T10:26:56;96230.28;;;20.12;100.00
57606;BME280;43430;48.204;11.556;2022-10-16T10:29:53;96221.16;;;20.18;100.00
57606;BME280;43430;48.204;11.556;2022-10-16T10:32:27;96220.25;;;20.33;100.00
57606;BME280;43430;48.204;11.556;2022-10-16T10:37:59;96213.72;;;20.49;100.00
57606;BME280;43430;48.204;11.556;2022-10-16T10:45:47;96220.00;;;20.74;100.00
57606;BME280;43430;48.204;11.556;2022-10-16T10:48:25;96214.31;;;20.80;100.00
57606;BME280;43430;48.204;11.556;2022-10-16T10:51:04;96208.63;;;20.87;100.00
57606;BME280;43430;48.204;11.556;2022-10-16T10:54:03;96214.47;;;20.94;100.00
57606;BME280;43430;48.204;11.556;2022-10-16T10:56:55;96211.16;;;21.02;98.36
57606;BME280;43430;48.204;11.556;2022-10-16T11:05:23;96215.88;;;21.16;100.00
57606;BME280;43430;48.204;11.556;2022-10-16T11:07:58;96208.56;;;21.21;95.94
57606;BME280;43430;48.204;11.556;2022-10-16T11:10:30;96209.09;;;21.23;100.00
57606;BME280;43430;48.204;11.556;2022-10-16T11:13:10;96210.41;;;21.26;98.10
57606;BME280;43430;48.204;11.556;2022-10-16T11:15:40;96205.25;;;21.29;94.77
57606;BME280;43430;48.204;11.556;2022-10-16T11:18:21;96204.47;;;21.29;97.31
57606;BME280;43430;48.204;11.556;2022-10-16T11:21:10;96205.19;;;21.40;94.37
57606;BME280;43430;48.204;11.556;2022-10-16T11:23:51;96206.81;;;21.41;89.93
57606;BME280;43430;48.204;11.556;2022-10-16T11:26:22;96202.00;;;21.38;88.12
57606;BME280;43430;48.204;11.556;2022-10-16T11:28:50;96200.25;;;21.52;90.66
57606;BME280;43430;48.204;11.556;2022-10-16T11:31:36;96210.09;;;21.56;90.38
57606;BME280;43430;48.204;11.556;2022-10-16T11:34:28;96205.53;;;21.57;86.80
57606;BME280;43430;48.204;11.556;2022-10-16T11:37:03;96198.53;;;21.61;91.62
57606;BME280;43430;48.204;11.556;2022-10-16T11:39:33;96206.09;;;21.78;86.02
57606;BME280;43430;48.204;11.556;2022-10-16T11:42:11;96201.59;;;21.73;82.63
57606;BME280;43430;48.204;11.556;2022-10-16T11:50:06;96198.91;;;21.49;79.64
57606;BME280;43430;48.204;11.556;2022-10-16T11:52:52;96202.97;;;21.71;84.73
57606;BME280;43430;48.204;11.556;2022-10-16T11:55:21;96199.94;;;21.77;87.41
57606;BME280;43430;48.204;11.556;2022-10-16T11:57:54;96195.34;;;21.78;81.63
57606;BME280;43430;48.204;11.556;2022-10-16T12:08:08;96206.19;;;21.92;76.79
57606;BME280;43430;48.204;11.556;2022-10-16T12:10:35;96199.03;;;22.06;76.48
57606;BME280;43430;48.204;11.556;2022-10-16T12:13:04;96188.91;;;22.22;78.77
57606;BME280;43430;48.204;11.556;2022-10-16T12:15:31;96203.94;;;22.23;77.94
57606;BME280;43430;48.204;11.556;2022-10-16T12:17:57;96199.03;;;22.06;80.97
57606;BME280;43430;48.204;11.556;2022-10-16T12:28:04;96186.00;;;22.37;81.10
57606;BME280;43430;48.204;11.556;2022-10-16T12:30:33;96187.59;;;22.38;80.08
57606;BME280;43430;48.204;11.556;2022-10-16T12:33:05;96194.47;;;22.25;75.20
57606;BME280;43430;48.204;11.556;2022-10-16T12:35:34;96185.91;;;22.42;72.22
57606;BME280;43430;48.204;11.556;2022-10-16T12:38:06;96194.53;;;22.58;73.92
57606;BME280;43430;48.204;11.556;2022-10-16T12:40:34;96191.69;;;22.68;70.63
57606;BME280;43430;48.204;11.556;2022-10-16T12:43:57;96189.59;;;22.65;79.67
57606;BME280;43430;48.204;11.556;2022-10-16T12:46:05;96184.50;;;22.64;80.89
57606;BME280;43430;48.204;11.556;2022-10-16T12:48:31;96190.38;;;22.66;79.90
57606;BME280;43430;48.204;11.556;2022-10-16T12:50:56;96186.38;;;22.63;80.33
57606;BME280;43430;48.204;11.556;2022-10-16T12:53:25;96181.19;;;22.53;75.85
57606;BME280;43430;48.204;11.556;2022-10-16T12:56:13;96180.69;;;22.51;77.41
57606;BME280;43430;48.204;11.556;2022-10-16T13:01:37;96184.72;;;22.67;61.96
57606;BME280;43430;48.204;11.556;2022-10-16T13:04:30;96188.38;;;22.58;62.65
57606;BME280;43430;48.204;11.556;2022-10-16T13:12:49;96179.13;;;22.64;61.04
57606;BME280;43430;48.204;11.556;2022-10-16T13:17:54;96186.91;;;22.65;62.66
57606;BME280;43430;48.204;11.556;2022-10-16T13:23:20;96183.84;;;22.53;60.23
57606;BME280;43430;48.204;11.556;2022-10-16T13:26:17;96191.50;;;22.65;59.60
57606;BME280;43430;48.204;11.556;2022-10-16T13:28:46;96185.53;;;22.68;63.35
57606;BME280;43430;48.204;11.556;2022-10-16T13:31:22;96194.53;;;22.58;62.85
57606;BME280;43430;48.204;11.556;2022-10-16T13:33:55;96190.84;;;22.54;60.39
57606;BME280;43430;48.204;11.556;2022-10-16T13:36:22;96196.81;;;22.51;58.92
57606;BME280;43430;48.204;11.556;2022-10-16T13:38:48;96195.25;;;22.64;59.66
57606;BME280;43430;48.204;11.556;2022-10-16T13:41:18;96195.19;;;22.69;57.87
57606;BME280;43430;48.204;11.556;2022-10-16T13:43:51;96197.78;;;22.74;61.29
57606;BME280;43430;48.204;11.556;2022-10-16T13:46:21;96196.50;;;22.71;60.17
57606;BME280;43430;48.204;11.556;2022-10-16T13:48:57;96192.88;;;22.62;63.30
57606;BME280;43430;48.204;11.556;2022-10-16T13:51:25;96207.63;;;22.65;59.97
57606;BME280;43430;48.204;11.556;2022-10-16T13:53:51;96204.19;;;22.78;58.96
57606;BME280;43430;48.204;11.556;2022-10-16T13:56:19;96200.72;;;22.91;61.30
57606;BME280;43430;48.204;11.556;2022-10-16T13:58:45;96209.78;;;22.82;64.44
57606;BME280;43430;48.204;11.556;2022-10-16T14:01:20;96205.78;;;22.79;60.19
57606;BME280;43430;48.204;11.556;2022-10-16T14:03:49;96213.13;;;22.92;57.07
57606;BME280;43430;48.204;11.556;2022-10-16T14:06:18;96214.59;;;22.98;58.72
57606;BME280;43430;48.204;11.556;2022-10-16T14:08:56;96220.28;;;22.97;52.80
57606;BME280;43430;48.204;11.556;2022-10-16T14:11:24;96213.81;;;22.98;57.31
57606;BME280;43430;48.204;11.556;2022-10-16T14:13:50;96214.59;;;22.98;55.66
57606;BME280;43430;48.204;11.556;2022-10-16T14:16:19;96208.94;;;23.00;54.58
57606;BME280;43430;48.204;11.556;2022-10-16T14:18:49;96214.59;;;22.98;55.01
57606;BME280;43430;48.204;11.556;2022-10-16T14:21:19;96215.03;;;22.87;55.72